createdAt,value
2022-12-17T12:31:17.466Z,13.38
2022-12-17T12:34:08.195Z,12.25
2022-12-17T12:36:54.715Z,13.07
2022-12-17T12:39:43.379Z,13.18
2022-12-17T12:42:32.552Z,13.55
2022-12-17T12:45:21.128Z,12.95
2022-12-17T12:48:09.912Z,14.98
2022-12-17T12:51:02.554Z,14.18
2022-12-17T12:53:47.278Z,14.68
2022-12-17T12:56:45.400Z,12.93
2022-12-17T12:59:31.125Z,13.77
2022-12-17T13:02:16.360Z,15.05
2022-12-17T13:05:01.577Z,13.45
2022-12-17T13:07:33.519Z,15.02
2022-12-17T13:10:01.156Z,15.30
2022-12-17T13:12:33.734Z,15.05
2022-12-17T13:15:16.819Z,14.27
2022-12-17T13:17:46.122Z,13.20
2022-12-17T13:20:25.274Z,13.18
2022-12-17T13:22:55.406Z,12.80
2022-12-17T13:25:24.214Z,12.02
2022-12-17T13:27:52.047Z,12.23
2022-12-17T13:30:30.943Z,13.23
2022-12-17T13:33:04.418Z,12.40
2022-12-17T13:35:38.420Z,14.07
2022-12-17T13:38:11.380Z,15.88
2022-12-17T13:40:42.622Z,14.93
2022-12-17T13:43:16.441Z,14.77
2022-12-17T13:45:44.507Z,13.90
2022-12-17T13:48:21.426Z,15.35
2022-12-17T13:50:54.794Z,14.82
2022-12-17T13:53:24.045Z,14.68
2022-12-17T13:55:52.291Z,14.63
2022-12-17T13:58:21.796Z,14.13
2022-12-17T14:00:49.980Z,14.32
2022-12-17T14:03:37.086Z,13.35
2022-12-17T14:06:10.405Z,13.95
2022-12-17T14:08:39.787Z,14.52
2022-12-17T14:11:25.336Z,13.60
2022-12-17T14:13:53.181Z,14.02
2022-12-17T14:16:21.399Z,14.32
2022-12-17T14:18:50.932Z,14.57
2022-12-17T14:21:18.814Z,13.52
2022-12-17T14:23:48.673Z,15.65
2022-12-17T14:26:17.162Z,13.98
2022-12-17T14:28:50.259Z,16.58
2022-12-17T14:31:28.770Z,15.70
2022-12-17T14:34:07.648Z,15.35
2022-12-17T14:36:37.069Z,15.93
2022-12-17T14:39:11.163Z,15.02
2022-12-17T14:41:57.293Z,14.68
2022-12-17T14:44:26.201Z,15.27
2022-12-17T14:46:55.585Z,15.03
2022-12-17T14:49:23.438Z,14.98
2022-12-17T14:51:51.032Z,15.13
2022-12-17T14:54:22.090Z,14.57
2022-12-17T14:56:50.404Z,14.00
2022-12-17T14:59:25.409Z,14.07
2022-12-17T15:01:56.267Z,14.93
2022-12-17T15:04:24.756Z,14.90
2022-12-17T15:06:55.015Z,13.97
2022-12-17T15:09:24.162Z,14.17
2022-12-17T15:11:51.786Z,14.20
2022-12-17T15:14:19.356Z,13.83
2022-12-17T15:16:47.259Z,14.40
2022-12-17T15:19:14.901Z,14.47
2022-12-17T15:21:42.534Z,14.07
2022-12-17T15:24:12.675Z,14.93
2022-12-17T15:26:41.846Z,13.63
2022-12-17T15:29:09.510Z,14.37
2022-12-17T15:31:37.284Z,14.87
2022-12-17T15:34:05.318Z,14.80
2022-12-17T15:36:33.056Z,15.40
2022-12-17T15:39:00.673Z,16.70
2022-12-17T15:41:45.735Z,16.63
2022-12-17T15:44:14.760Z,17.23
2022-12-17T15:46:42.495Z,18.07
2022-12-17T15:49:10.139Z,18.07
2022-12-17T15:51:37.881Z,17.43
2022-12-17T15:54:05.736Z,16.23
2022-12-17T15:56:34.811Z,16.33
2022-12-17T15:59:02.404Z,17.60
2022-12-17T16:01:31.676Z,18.40
2022-12-17T16:04:00.606Z,17.20
2022-12-17T17:11:25.246Z,19.87
2022-12-17T17:13:53.968Z,19.87
2022-12-17T17:16:22.400Z,18.40
2022-12-17T17:18:50.047Z,19.30
2022-12-17T17:21:23.839Z,20.20
2022-12-17T17:23:57.244Z,21.40
2022-12-17T17:33:54.378Z,19.10
2022-12-17T17:41:25.531Z,18.70
2022-12-17T17:43:54.625Z,17.87
2022-12-17T17:54:18.444Z,20.13
2022-12-17T17:56:46.112Z,19.83
2022-12-17T18:01:47.021Z,18.23
2022-12-17T18:04:15.700Z,19.10
2022-12-17T18:09:34.227Z,18.17
2022-12-17T18:12:23.085Z,20.27
2022-12-17T18:15:12.468Z,21.13
2022-12-17T18:17:37.425Z,22.47
2022-12-17T18:20:05.463Z,21.60
2022-12-17T18:22:33.199Z,23.87
2022-12-17T18:25:04.572Z,20.80
2022-12-17T18:27:32.303Z,19.30
2022-12-17T18:29:59.893Z,20.07
2022-12-17T18:32:27.528Z,18.07
2022-12-17T18:34:55.242Z,19.33
2022-12-17T18:37:22.982Z,18.53
2022-12-17T18:39:50.853Z,21.00
2022-12-17T18:42:37.372Z,23.50
2022-12-17T18:45:05.201Z,20.53
2022-12-17T18:47:32.834Z,20.73
2022-12-17T18:50:00.472Z,21.17
2022-12-17T18:52:29.394Z,22.87
2022-12-17T18:54:57.337Z,17.90
2022-12-17T18:57:26.600Z,18.87
2022-12-17T18:59:54.337Z,16.33
2022-12-17T19:02:22.256Z,19.60
2022-12-17T19:04:50.054Z,18.97
2022-12-17T19:07:18.082Z,19.80
2022-12-17T19:09:45.812Z,17.30
2022-12-17T19:12:13.488Z,16.20
2022-12-17T19:14:43.456Z,19.20
2022-12-17T19:17:11.169Z,19.20
2022-12-17T19:19:38.802Z,15.53
2022-12-17T19:22:06.965Z,16.43
2022-12-17T19:24:35.186Z,22.60
2022-12-17T19:27:02.789Z,16.90
2022-12-17T19:29:30.412Z,12.90
2022-12-17T19:31:59.474Z,20.33
2022-12-17T19:34:27.155Z,20.03
2022-12-17T19:36:54.746Z,20.60
2022-12-17T19:39:22.678Z,18.10
2022-12-17T19:41:50.512Z,19.17
2022-12-17T19:49:18.001Z,18.90
2022-12-17T20:01:43.239Z,21.97
2022-12-17T20:04:12.516Z,20.20
2022-12-17T20:06:41.629Z,19.87
2022-12-17T20:09:09.520Z,22.50
2022-12-17T20:11:37.662Z,18.40
2022-12-17T20:14:06.915Z,21.43
2022-12-17T20:16:35.462Z,21.83
2022-12-17T20:19:03.724Z,22.00
2022-12-17T20:21:31.434Z,22.03
2022-12-17T20:24:00.501Z,17.53
2022-12-17T20:26:28.716Z,20.10
2022-12-17T20:28:56.614Z,20.57
2022-12-17T20:31:24.247Z,15.30
2022-12-17T20:33:52.404Z,9.20
2022-12-17T20:36:21.384Z,12.23
2022-12-17T20:38:48.991Z,18.90
2022-12-17T20:41:19.300Z,22.50
2022-12-17T20:43:47.308Z,11.70
2022-12-17T20:46:15.322Z,17.97
2022-12-17T20:48:44.171Z,21.77
2022-12-17T20:51:13.417Z,22.30
2022-12-17T20:53:41.673Z,21.37
2022-12-17T20:56:10.543Z,16.87
2022-12-17T20:58:40.515Z,26.13
2022-12-17T21:03:42.539Z,23.30
2022-12-17T21:06:11.193Z,24.90
2022-12-17T21:08:43.342Z,24.57
2022-12-17T21:11:13.885Z,15.03
2022-12-17T21:13:42.914Z,18.37
2022-12-17T21:16:12.101Z,23.23
2022-12-17T21:18:40.727Z,22.97
2022-12-17T21:21:09.595Z,16.20
2022-12-17T21:26:10.382Z,22.40
2022-12-17T21:48:42.518Z,19.27
2022-12-17T21:51:12.059Z,23.70
2022-12-17T21:53:42.828Z,22.80
2022-12-17T21:56:12.238Z,21.63
2022-12-17T22:24:07.865Z,27.30
2022-12-17T22:26:35.725Z,23.87
2022-12-17T22:29:03.344Z,25.47
2022-12-17T22:31:45.011Z,24.40
2022-12-17T22:34:45.432Z,18.60
2022-12-17T22:40:06.708Z,16.93
2022-12-17T22:44:32.240Z,20.37
2022-12-17T22:44:41.941Z,16.43
2022-12-17T22:45:43.071Z,18.93
2022-12-17T22:48:11.418Z,18.83
2022-12-17T22:50:44.418Z,19.93
2022-12-17T22:53:20.902Z,20.87
2022-12-17T22:55:49.078Z,16.20
2022-12-17T22:58:17.375Z,21.53
2022-12-17T23:00:45.104Z,20.90
2022-12-17T23:03:12.898Z,20.73
2022-12-17T23:05:42.022Z,23.13
2022-12-17T23:08:09.647Z,17.70
2022-12-17T23:10:37.297Z,19.87
2022-12-17T23:13:04.979Z,22.57
2022-12-17T23:15:34.849Z,17.43
2022-12-17T23:18:03.860Z,18.23
2022-12-17T23:20:33.317Z,21.67
2022-12-17T23:23:02.608Z,21.03
2022-12-17T23:25:30.277Z,20.37
2022-12-17T23:27:58.360Z,22.47
2022-12-17T23:30:26.003Z,18.87
2022-12-17T23:32:53.698Z,16.90
2022-12-17T23:35:21.629Z,19.30
2022-12-17T23:37:49.537Z,19.40
2022-12-17T23:40:18.603Z,18.10
2022-12-17T23:42:46.302Z,17.23
2022-12-17T23:45:14.138Z,20.77
2022-12-17T23:47:42.415Z,13.67
2022-12-17T23:52:53.719Z,13.87
